createdAt,value
2017-04-26T00:00:35.817Z,92.30
2017-04-26T00:01:35.002Z,92.30
2017-04-26T00:02:34.258Z,92.30
2017-04-26T00:03:33.854Z,92.60
2017-04-26T00:04:33.118Z,92.20
2017-04-26T00:05:32.307Z,92.10
2017-04-26T00:06:31.753Z,92.20
2017-04-26T00:07:30.890Z,92.20
2017-04-26T00:08:30.830Z,92.30
2017-04-26T00:09:30.062Z,92.40
2017-04-26T00:10:29.206Z,92.50
2017-04-26T00:11:28.546Z,92.50
2017-04-26T00:12:27.769Z,92.60
2017-04-26T00:13:26.980Z,92.60
2017-04-26T00:14:26.170Z,92.60
2017-04-26T00:15:27.223Z,92.70
2017-04-26T00:16:26.453Z,92.50
2017-04-26T00:17:26.614Z,92.60
2017-04-26T00:18:25.925Z,92.70
2017-04-26T00:19:25.156Z,92.70
2017-04-26T00:20:24.393Z,92.70
2017-04-26T00:21:23.555Z,92.70
2017-04-26T00:22:22.758Z,92.70
2017-04-26T00:23:21.978Z,92.70
2017-04-26T00:24:21.933Z,92.80
2017-04-26T00:25:21.129Z,92.70
2017-04-26T00:26:20.357Z,92.70
2017-04-26T00:27:19.540Z,92.70
2017-04-26T00:28:19.457Z,93.00
2017-04-26T00:29:19.405Z,92.70
2017-04-26T00:30:18.661Z,92.70
2017-04-26T00:31:17.876Z,92.90
2017-04-26T00:32:17.167Z,92.70
2017-04-26T00:33:16.410Z,92.90
2017-04-26T00:34:15.668Z,92.80
2017-04-26T00:35:14.977Z,92.90
2017-04-26T00:36:14.176Z,92.80
2017-04-26T00:37:14.132Z,92.70
2017-04-26T00:38:13.314Z,92.60
2017-04-26T00:39:12.561Z,92.80
2017-04-26T00:40:12.510Z,92.90
2017-04-26T00:41:11.804Z,93.00
2017-04-26T00:42:10.977Z,93.00
2017-04-26T00:43:10.166Z,93.00
2017-04-26T00:44:09.370Z,93.00
2017-04-26T00:45:08.605Z,93.00
2017-04-26T00:46:08.613Z,93.50
2017-04-26T00:47:08.558Z,93.10
2017-04-26T00:48:07.760Z,93.20
2017-04-26T00:49:06.968Z,93.10
2017-04-26T00:50:06.241Z,93.00
2017-04-26T00:51:05.514Z,93.00
2017-04-26T00:52:04.840Z,93.00
2017-04-26T00:53:04.017Z,92.90
2017-04-26T00:54:03.221Z,92.90
2017-04-26T00:55:03.260Z,93.00
2017-04-26T00:56:02.428Z,93.20
2017-04-26T00:57:02.368Z,92.70
2017-04-26T00:58:01.643Z,92.80
2017-04-26T00:59:00.925Z,92.90
2017-04-26T01:00:00.106Z,92.70
2017-04-26T01:01:00.048Z,93.00
2017-04-26T01:01:59.224Z,93.20
2017-04-26T01:02:58.517Z,93.30
2017-04-26T01:03:57.649Z,93.20
2017-04-26T01:04:57.318Z,93.20
2017-04-26T01:05:56.493Z,93.20
2017-04-26T01:06:55.738Z,93.20
2017-04-26T01:07:55.678Z,93.10
2017-04-26T01:08:54.985Z,93.20
2017-04-26T01:09:54.151Z,93.30
2017-04-26T01:10:53.397Z,93.20
2017-04-26T01:11:52.669Z,93.10
2017-04-26T01:12:51.905Z,93.10
2017-04-26T01:13:51.078Z,93.00
2017-04-26T01:14:51.021Z,93.30
2017-04-26T01:15:50.366Z,93.10
2017-04-26T01:16:50.277Z,92.80
2017-04-26T01:17:50.262Z,93.00
2017-04-26T01:18:49.726Z,92.90
2017-04-26T01:19:48.860Z,92.70
2017-04-26T01:20:48.126Z,92.90
2017-04-26T01:21:47.353Z,92.80
2017-04-26T01:22:46.512Z,93.10
2017-04-26T01:23:45.733Z,93.00
2017-04-26T01:24:44.888Z,93.00
2017-04-26T01:25:44.022Z,92.90
2017-04-26T01:26:43.485Z,93.00
2017-04-26T01:27:43.468Z,93.00
2017-04-26T01:28:42.780Z,93.00
2017-04-26T01:29:42.734Z,93.10
2017-04-26T01:30:42.048Z,93.30
2017-04-26T01:31:41.236Z,93.30
2017-04-26T01:32:40.483Z,93.20
2017-04-26T01:33:39.672Z,93.40
2017-04-26T01:34:38.865Z,93.10
2017-04-26T01:35:38.044Z,92.90
2017-04-26T01:36:37.232Z,93.10
2017-04-26T01:37:36.680Z,93.00
2017-04-26T01:38:36.590Z,93.00
2017-04-26T01:39:36.500Z,93.30
2017-04-26T01:40:36.445Z,93.20
2017-04-26T01:41:35.620Z,93.40
2017-04-26T01:42:34.797Z,93.50
2017-04-26T01:43:34.362Z,93.50
2017-04-26T01:44:34.333Z,93.40
2017-04-26T01:45:33.540Z,93.30
2017-04-26T01:46:32.726Z,93.20
2017-04-26T01:47:31.933Z,93.20
2017-04-26T01:48:32.013Z,93.40
2017-04-26T01:50:30.749Z,93.40
2017-04-26T01:51:29.990Z,93.30
2017-04-26T01:52:30.008Z,93.20
2017-04-26T01:53:29.262Z,93.40
2017-04-26T01:54:28.501Z,93.20
2017-04-26T01:55:28.600Z,93.10
2017-04-26T01:56:28.547Z,93.20
2017-04-26T01:57:27.744Z,93.30
2017-04-26T01:58:26.918Z,93.30
2017-04-26T01:59:26.156Z,93.30
2017-04-26T02:00:25.333Z,93.20
2017-04-26T02:01:24.651Z,93.00
2017-04-26T02:02:23.894Z,93.20
2017-04-26T02:03:23.204Z,93.10
2017-04-26T02:04:22.500Z,93.10
2017-04-26T02:05:21.798Z,93.20
2017-04-26T02:06:21.753Z,93.50
2017-04-26T02:07:21.018Z,93.10
2017-04-26T02:08:20.913Z,93.30
2017-04-26T02:09:21.241Z,93.60
2017-04-26T02:10:20.480Z,93.60
2017-04-26T02:11:19.725Z,93.50
2017-04-26T02:12:18.909Z,93.40
2017-04-26T02:13:18.159Z,93.50
2017-04-26T02:14:17.389Z,93.40
2017-04-26T02:15:16.690Z,93.50
2017-04-26T02:16:15.856Z,93.50
2017-04-26T02:17:15.230Z,93.70
2017-04-26T02:18:15.172Z,93.70
2017-04-26T02:19:14.379Z,93.60
2017-04-26T02:20:13.578Z,93.60
2017-04-26T02:21:12.821Z,93.60
2017-04-26T02:22:12.265Z,93.60
2017-04-26T02:23:11.479Z,94.40
2017-04-26T02:24:11.403Z,93.50
2017-04-26T02:25:10.761Z,93.60
2017-04-26T02:26:09.982Z,93.60
2017-04-26T02:27:09.224Z,93.60
2017-04-26T02:28:09.233Z,93.60
2017-04-26T02:29:08.502Z,93.60
2017-04-26T02:30:07.666Z,93.60
2017-04-26T02:31:06.854Z,93.40
2017-04-26T02:32:06.049Z,93.40
2017-04-26T02:33:05.214Z,93.50
2017-04-26T02:34:04.448Z,93.30
2017-04-26T02:35:03.709Z,93.40
2017-04-26T02:36:02.878Z,93.30
2017-04-26T02:37:02.070Z,93.30
2017-04-26T02:38:01.278Z,93.40
2017-04-26T02:39:00.461Z,93.30
2017-04-26T02:39:59.639Z,93.50
2017-04-26T02:40:58.840Z,93.50
2017-04-26T02:41:58.090Z,93.50
2017-04-26T02:42:57.251Z,93.40
2017-04-26T02:43:56.502Z,93.40
2017-04-26T02:44:55.682Z,93.30
2017-04-26T02:45:54.846Z,93.30
2017-04-26T02:46:53.960Z,93.10
2017-04-26T02:47:53.238Z,93.10
2017-04-26T02:48:52.457Z,93.00
2017-04-26T02:49:51.644Z,93.00
2017-04-26T02:50:50.933Z,92.90
2017-04-26T02:51:50.157Z,92.90
2017-04-26T02:52:49.373Z,92.90
2017-04-26T02:53:48.599Z,92.80
2017-04-26T02:54:47.809Z,92.80
2017-04-26T02:55:47.004Z,92.80
2017-04-26T02:56:46.193Z,92.80
2017-04-26T02:57:45.313Z,92.80
2017-04-26T02:58:44.517Z,92.90
2017-04-26T02:59:43.894Z,92.80
2017-04-26T03:00:43.064Z,93.10
2017-04-26T03:01:42.232Z,92.80
2017-04-26T03:02:42.259Z,92.70
2017-04-26T03:03:41.504Z,93.00
2017-04-26T03:04:40.686Z,93.10
2017-04-26T03:05:39.932Z,93.10
2017-04-26T03:06:39.130Z,93.30
2017-04-26T03:07:38.341Z,93.40
2017-04-26T03:08:37.583Z,93.30
2017-04-26T03:09:36.873Z,93.30
2017-04-26T03:10:36.047Z,93.20
2017-04-26T03:11:35.232Z,93.40
2017-04-26T03:12:34.440Z,93.30
2017-04-26T03:13:33.609Z,93.30
2017-04-26T03:14:33.616Z,93.40
2017-04-26T03:15:33.329Z,93.50
2017-04-26T03:16:32.508Z,93.50
2017-04-26T03:17:31.675Z,93.40
2017-04-26T03:18:30.877Z,93.40
2017-04-26T03:19:30.088Z,93.30
2017-04-26T03:20:29.249Z,93.50
2017-04-26T03:21:29.209Z,93.60
2017-04-26T03:22:28.650Z,93.90
2017-04-26T03:23:28.693Z,94.00
2017-04-26T03:24:27.873Z,93.90
2017-04-26T03:25:27.202Z,93.90
2017-04-26T03:26:26.350Z,93.90
2017-04-26T03:27:25.552Z,93.80
2017-04-26T03:28:24.760Z,93.70
2017-04-26T03:30:23.514Z,93.70
2017-04-26T03:31:22.841Z,93.80
2017-04-26T03:32:22.008Z,93.90
2017-04-26T03:33:21.231Z,93.90
2017-04-26T03:34:21.160Z,94.10
2017-04-26T03:35:20.371Z,94.00
2017-04-26T03:36:19.619Z,93.90
2017-04-26T03:37:18.950Z,93.70
2017-04-26T03:38:18.214Z,93.70
2017-04-26T03:39:17.458Z,93.60
2017-04-26T03:40:16.689Z,93.60
2017-04-26T03:41:15.941Z,93.60
2017-04-26T03:42:15.173Z,93.60
2017-04-26T03:43:14.389Z,93.50
2017-04-26T03:44:13.598Z,93.40
2017-04-26T03:45:12.948Z,93.30
2017-04-26T03:46:12.200Z,93.30
2017-04-26T03:47:11.466Z,93.50
2017-04-26T03:48:10.633Z,93.70
2017-04-26T03:49:09.850Z,93.60
2017-04-26T03:50:09.009Z,93.50
2017-04-26T03:51:08.279Z,93.50
2017-04-26T03:52:07.545Z,93.40
2017-04-26T03:53:06.737Z,93.50
2017-04-26T03:54:05.949Z,93.40
2017-04-26T03:55:05.164Z,93.40
2017-04-26T03:56:04.362Z,93.30
2017-04-26T03:57:03.590Z,93.40
2017-04-26T03:58:02.784Z,93.40
2017-04-26T03:59:02.001Z,93.40
2017-04-26T04:00:01.220Z,93.70
2017-04-26T04:01:00.393Z,93.50
2017-04-26T04:01:59.583Z,93.50
2017-04-26T04:02:58.775Z,93.50
2017-04-26T04:03:58.041Z,93.50
2017-04-26T04:04:57.322Z,93.40
2017-04-26T04:05:56.547Z,93.50
2017-04-26T04:06:55.742Z,93.50
2017-04-26T04:07:55.738Z,93.40
2017-04-26T04:08:54.969Z,93.30
2017-04-26T04:09:54.209Z,93.50
2017-04-26T04:11:53.828Z,93.40
2017-04-26T04:12:53.015Z,93.50
2017-04-26T04:13:52.197Z,93.40
2017-04-26T04:14:51.349Z,93.40
2017-04-26T04:15:51.493Z,93.50
2017-04-26T04:16:50.673Z,93.60
2017-04-26T04:17:49.942Z,93.60
2017-04-26T04:18:49.506Z,93.70
2017-04-26T04:19:48.723Z,93.80
2017-04-26T04:20:48.012Z,93.80
2017-04-26T04:21:47.296Z,93.80
2017-04-26T04:22:46.456Z,93.70
2017-04-26T04:23:45.645Z,93.80
2017-04-26T04:24:44.998Z,93.80
2017-04-26T04:25:44.193Z,94.00
2017-04-26T04:26:44.073Z,94.20
2017-04-26T04:27:43.369Z,94.20
2017-04-26T04:28:42.853Z,94.20
2017-04-26T04:29:42.122Z,94.10
2017-04-26T04:30:41.340Z,94.10
2017-04-26T04:31:40.648Z,94.10
2017-04-26T04:32:40.613Z,93.90
2017-04-26T04:33:39.821Z,93.90
2017-04-26T04:34:39.045Z,93.90
2017-04-26T04:35:38.248Z,93.90
2017-04-26T04:36:37.434Z,94.10
2017-04-26T04:37:36.630Z,94.10
2017-04-26T04:38:35.882Z,93.90
2017-04-26T04:39:36.372Z,93.90
2017-04-26T04:40:35.604Z,93.90
2017-04-26T04:41:34.804Z,93.80
2017-04-26T04:42:34.148Z,93.70
2017-04-26T04:43:33.475Z,93.70
2017-04-26T04:44:32.632Z,93.90
2017-04-26T04:45:32.013Z,93.70
2017-04-26T04:46:31.189Z,93.70
2017-04-26T04:47:30.366Z,93.80
2017-04-26T04:48:30.335Z,94.10
2017-04-26T04:49:29.518Z,94.20
2017-04-26T04:50:28.794Z,93.90
2017-04-26T04:51:28.751Z,94.00
2017-04-26T04:52:27.880Z,94.00
2017-04-26T04:53:27.779Z,94.10
2017-04-26T04:54:27.002Z,94.20
2017-04-26T04:55:26.144Z,94.20
2017-04-26T04:56:25.383Z,94.10
2017-04-26T04:57:24.560Z,94.10
2017-04-26T04:58:23.753Z,94.10
2017-04-26T04:59:22.899Z,94.20
2017-04-26T05:00:28.420Z,94.60
2017-04-26T05:01:28.026Z,94.10
2017-04-26T05:02:27.213Z,94.00
2017-04-26T05:03:26.387Z,93.90
2017-04-26T05:04:25.621Z,94.00
2017-04-26T05:05:24.804Z,94.00
2017-04-26T05:06:23.993Z,93.70
2017-04-26T05:07:23.665Z,93.60
2017-04-26T05:08:22.899Z,93.80
2017-04-26T05:09:22.138Z,93.80
2017-04-26T05:10:21.519Z,93.70
2017-04-26T05:11:20.654Z,93.80
2017-04-26T05:12:19.894Z,93.70
2017-04-26T05:13:20.055Z,93.90
2017-04-26T05:14:19.216Z,93.80
2017-04-26T05:15:24.008Z,93.50
2017-04-26T05:16:23.397Z,93.50
2017-04-26T05:17:32.701Z,93.40
2017-04-26T05:18:31.910Z,93.50
2017-04-26T05:19:31.087Z,93.40
2017-04-26T05:20:30.356Z,93.40
2017-04-26T05:21:29.653Z,93.40
2017-04-26T05:22:28.913Z,93.40
2017-04-26T05:23:28.125Z,93.70
2017-04-26T05:24:27.358Z,93.40
2017-04-26T05:25:26.592Z,93.50
2017-04-26T05:26:25.781Z,93.40
2017-04-26T05:27:25.070Z,93.40
2017-04-26T05:28:24.366Z,93.50
2017-04-26T05:29:23.576Z,93.40
2017-04-26T05:30:22.777Z,93.40
2017-04-26T05:31:21.981Z,93.40
2017-04-26T05:32:21.184Z,93.30
2017-04-26T05:33:20.372Z,93.30
2017-04-26T05:34:19.546Z,93.20
2017-04-26T05:35:19.528Z,93.20
2017-04-26T05:36:18.733Z,93.20
2017-04-26T05:37:18.857Z,93.10
2017-04-26T05:38:18.801Z,93.20
2017-04-26T05:39:18.046Z,93.00
2017-04-26T05:40:18.041Z,93.10
2017-04-26T05:41:17.237Z,93.30
2017-04-26T05:42:16.508Z,93.10
2017-04-26T05:43:15.739Z,93.30
2017-04-26T05:44:15.015Z,93.40
2017-04-26T05:45:14.229Z,93.30
2017-04-26T05:46:13.452Z,93.20
2017-04-26T05:47:12.728Z,93.10
2017-04-26T05:48:12.134Z,93.60
2017-04-26T05:49:11.371Z,93.50
2017-04-26T05:50:10.668Z,93.30
2017-04-26T05:51:09.873Z,93.30
2017-04-26T05:52:09.191Z,93.30
2017-04-26T05:53:08.421Z,93.60
2017-04-26T05:54:07.593Z,93.20
2017-04-26T05:55:07.571Z,93.10
2017-04-26T05:56:06.941Z,93.20
2017-04-26T05:57:06.181Z,93.10
2017-04-26T05:58:06.109Z,93.10
2017-04-26T05:59:05.298Z,93.10
2017-04-26T06:00:04.489Z,93.00
2017-04-26T06:01:03.721Z,93.10
2017-04-26T06:02:02.976Z,92.90
2017-04-26T06:03:02.293Z,92.60
2017-04-26T06:04:02.231Z,92.40
2017-04-26T06:05:02.157Z,92.60
2017-04-26T06:06:01.319Z,92.70
2017-04-26T06:07:01.321Z,92.70
2017-04-26T06:08:01.278Z,92.60
2017-04-26T06:09:00.445Z,92.60
2017-04-26T06:09:59.587Z,92.50
2017-04-26T06:10:58.761Z,92.40
2017-04-26T06:11:57.994Z,92.60
2017-04-26T06:12:57.166Z,92.70
2017-04-26T06:13:57.155Z,92.50
2017-04-26T06:14:56.379Z,92.50
2017-04-26T06:15:55.573Z,92.40
2017-04-26T06:16:54.816Z,92.30
2017-04-26T06:17:54.156Z,91.90
2017-04-26T06:18:53.481Z,91.80
2017-04-26T06:19:53.281Z,91.90
2017-04-26T06:20:53.283Z,91.60
2017-04-26T06:21:52.728Z,91.80
2017-04-26T06:22:52.791Z,91.90
2017-04-26T06:23:51.999Z,92.00
2017-04-26T06:24:51.264Z,92.30
2017-04-26T06:25:50.646Z,91.50
2017-04-26T06:26:50.149Z,91.40
2017-04-26T06:27:49.390Z,91.60
2017-04-26T06:28:49.012Z,91.70
2017-04-26T06:29:48.288Z,91.60
2017-04-26T06:30:47.537Z,91.20
2017-04-26T06:31:46.821Z,91.10
2017-04-26T06:32:46.078Z,91.40
2017-04-26T06:33:45.354Z,91.40
2017-04-26T06:34:44.605Z,91.20
2017-04-26T06:35:44.919Z,91.20
2017-04-26T06:36:44.929Z,91.20
2017-04-26T06:37:44.206Z,90.90
2017-04-26T06:38:43.475Z,90.90
2017-04-26T06:39:42.690Z,90.60
2017-04-26T06:40:42.696Z,90.90
2017-04-26T06:41:42.715Z,90.60
2017-04-26T06:42:42.707Z,90.50
2017-04-26T06:43:43.399Z,90.80
2017-04-26T06:44:42.697Z,90.30
2017-04-26T06:45:41.885Z,90.10
2017-04-26T06:46:41.113Z,90.20
2017-04-26T06:47:40.383Z,90.50
2017-04-26T06:48:40.809Z,90.60
2017-04-26T06:49:40.115Z,90.20
2017-04-26T06:50:39.332Z,90.40
2017-04-26T06:51:38.673Z,89.80
2017-04-26T06:52:37.962Z,90.10
2017-04-26T06:53:38.065Z,89.30
2017-04-26T06:54:38.102Z,89.50
2017-04-26T06:55:37.299Z,88.90
2017-04-26T06:56:36.661Z,89.30
2017-04-26T06:57:36.693Z,89.00
2017-04-26T06:58:35.929Z,90.00
2017-04-26T06:59:36.617Z,88.80
2017-04-26T07:00:35.851Z,89.00
2017-04-26T07:01:35.889Z,89.10
2017-04-26T07:02:35.889Z,88.60
2017-04-26T07:03:35.151Z,89.60
2017-04-26T07:04:35.378Z,89.70
2017-04-26T07:05:35.708Z,90.00
2017-04-26T07:06:35.035Z,89.00
2017-04-26T07:07:34.842Z,89.80
2017-04-26T07:08:34.167Z,90.00
2017-04-26T07:09:33.366Z,90.00
2017-04-26T07:10:33.087Z,90.10
2017-04-26T07:11:33.029Z,88.60
2017-04-26T07:12:33.090Z,87.30
2017-04-26T07:13:34.468Z,87.00
2017-04-26T07:14:33.685Z,87.10
2017-04-26T07:15:33.513Z,86.60
2017-04-26T07:16:33.663Z,86.90
2017-04-26T07:17:33.592Z,85.80
2017-04-26T07:18:32.952Z,85.50
2017-04-26T07:19:32.225Z,87.00
2017-04-26T07:20:31.585Z,86.10
2017-04-26T07:21:31.839Z,86.60
2017-04-26T07:22:31.241Z,87.80
2017-04-26T07:23:30.481Z,85.50
2017-04-26T07:24:30.448Z,86.60
2017-04-26T07:25:29.763Z,84.40
2017-04-26T07:26:29.034Z,83.70
2017-04-26T07:27:28.289Z,84.10
2017-04-26T07:28:27.590Z,82.00
2017-04-26T07:29:26.905Z,84.00
2017-04-26T07:30:26.261Z,82.60
2017-04-26T07:31:25.666Z,81.50
2017-04-26T07:32:26.549Z,82.70
2017-04-26T07:33:25.921Z,81.20
2017-04-26T07:34:25.232Z,82.30
2017-04-26T07:35:24.522Z,82.30
2017-04-26T07:36:24.989Z,81.20
2017-04-26T07:37:24.197Z,81.70
2017-04-26T07:38:23.819Z,81.30
2017-04-26T07:39:23.088Z,80.30
2017-04-26T07:40:22.772Z,79.80
2017-04-26T07:41:22.876Z,81.10
2017-04-26T07:42:22.300Z,81.70
2017-04-26T07:43:22.897Z,80.30
2017-04-26T07:44:22.253Z,78.00
2017-04-26T07:45:21.572Z,79.50
2017-04-26T07:46:21.023Z,79.30
2017-04-26T07:47:20.313Z,80.50
2017-04-26T07:48:20.178Z,78.70
2017-04-26T07:49:19.478Z,77.30
2017-04-26T07:50:18.737Z,77.30
2017-04-26T07:51:18.174Z,77.30
2017-04-26T07:52:17.841Z,78.50
2017-04-26T07:53:17.189Z,79.20
2017-04-26T07:54:16.573Z,75.60
2017-04-26T07:55:22.241Z,75.40
2017-04-26T07:56:21.606Z,76.60
2017-04-26T07:57:21.110Z,73.90
2017-04-26T07:58:20.616Z,73.60
2017-04-26T07:59:20.265Z,72.70
2017-04-26T08:00:20.429Z,73.50
2017-04-26T08:01:21.640Z,73.70
2017-04-26T08:02:21.668Z,72.40
2017-04-26T08:03:21.335Z,75.00
2017-04-26T08:04:21.845Z,72.80
2017-04-26T08:05:22.035Z,73.40
2017-04-26T08:06:22.932Z,74.50
2017-04-26T08:07:22.386Z,74.30
2017-04-26T08:08:21.779Z,70.90
2017-04-26T08:09:21.124Z,71.20
2017-04-26T08:10:20.481Z,68.50
2017-04-26T08:11:19.835Z,70.40
2017-04-26T08:12:20.625Z,69.70
2017-04-26T08:13:19.835Z,71.20
2017-04-26T08:14:19.984Z,69.80
2017-04-26T08:15:19.285Z,69.00
2017-04-26T08:16:28.771Z,71.80
2017-04-26T08:17:29.617Z,72.90
2017-04-26T08:18:30.067Z,68.50
2017-04-26T08:19:29.343Z,67.00
2017-04-26T08:20:28.707Z,67.50
2017-04-26T08:21:28.742Z,65.40
2017-04-26T08:22:28.492Z,68.60
2017-04-26T08:23:32.799Z,68.30
2017-04-26T08:24:32.232Z,65.00
2017-04-26T08:25:32.225Z,66.00
2017-04-26T08:26:31.574Z,65.30
2017-04-26T08:27:30.941Z,64.10
2017-04-26T08:28:30.784Z,66.90
2017-04-26T08:29:32.086Z,64.80
2017-04-26T08:30:31.705Z,66.60
2017-04-26T08:31:34.672Z,65.20
2017-04-26T08:32:34.850Z,64.60
2017-04-26T08:33:34.611Z,62.40
2017-04-26T08:34:34.755Z,63.70
2017-04-26T08:35:34.094Z,63.30
2017-04-26T08:36:33.544Z,63.30
2017-04-26T08:37:32.947Z,62.10
2017-04-26T08:38:33.208Z,64.20
2017-04-26T08:39:32.798Z,62.80
2017-04-26T08:40:33.966Z,63.30
2017-04-26T08:41:33.308Z,63.40
2017-04-26T08:42:32.895Z,62.70
2017-04-26T08:43:35.978Z,59.40
2017-04-26T08:44:35.526Z,61.10
2017-04-26T08:45:35.214Z,59.80
2017-04-26T08:46:34.665Z,58.70
2017-04-26T08:47:39.565Z,59.00
2017-04-26T08:48:38.947Z,57.60
2017-04-26T08:49:39.321Z,59.90
2017-04-26T08:50:39.471Z,61.80
2017-04-26T08:51:39.221Z,61.90
2017-04-26T08:52:39.278Z,61.90
2017-04-26T08:53:39.406Z,60.40
2017-04-26T08:55:38.945Z,61.60
2017-04-26T08:56:49.513Z,63.30
2017-04-26T08:57:51.305Z,60.50
2017-04-26T08:58:52.094Z,60.20
2017-04-26T08:59:52.853Z,60.00
2017-04-26T09:00:52.386Z,63.20
2017-04-26T09:01:52.913Z,58.70
2017-04-26T09:02:53.302Z,58.00
2017-04-26T09:05:04.678Z,57.90
2017-04-26T09:06:10.486Z,59.40
2017-04-26T09:07:10.723Z,59.30
2017-04-26T09:08:10.328Z,58.80
2017-04-26T09:09:10.412Z,58.30
2017-04-26T09:10:09.957Z,58.70
2017-04-26T09:11:16.980Z,59.40
2017-04-26T09:12:19.957Z,60.30
2017-04-26T09:13:19.426Z,62.40
2017-04-26T09:14:18.683Z,59.50
2017-04-26T09:15:19.608Z,59.70
2017-04-26T09:16:19.916Z,58.70
2017-04-26T09:17:19.732Z,58.30
2017-04-26T09:18:19.981Z,59.20
2017-04-26T09:19:20.260Z,61.60
2017-04-26T09:20:19.844Z,60.70
2017-04-26T09:21:20.214Z,59.70
2017-04-26T09:22:20.864Z,59.80
2017-04-26T09:23:20.454Z,58.70
2017-04-26T09:24:19.866Z,59.10
2017-04-26T09:25:19.387Z,59.60
2017-04-26T09:26:18.876Z,59.80
2017-04-26T09:27:20.310Z,60.00
2017-04-26T09:28:21.038Z,60.10
2017-04-26T09:29:20.465Z,60.00
2017-04-26T09:30:20.051Z,60.80
2017-04-26T09:31:19.505Z,59.00
2017-04-26T09:32:20.797Z,58.90
2017-04-26T09:33:20.222Z,59.50
2017-04-26T09:34:19.501Z,58.70
2017-04-26T09:35:19.006Z,58.70
2017-04-26T09:36:19.240Z,58.50
2017-04-26T09:37:19.560Z,58.80
2017-04-26T09:38:19.632Z,59.80
2017-04-26T09:39:20.389Z,60.40
2017-04-26T09:40:21.066Z,61.20
2017-04-26T09:41:20.414Z,61.50
2017-04-26T09:42:19.749Z,60.50
2017-04-26T09:43:31.498Z,60.30
2017-04-26T09:45:31.091Z,60.40
2017-04-26T09:46:30.499Z,61.60
2017-04-26T09:47:30.082Z,62.30
2017-04-26T09:48:30.417Z,60.60
2017-04-26T09:49:29.850Z,60.20
2017-04-26T09:51:40.197Z,60.80
2017-04-26T09:52:40.978Z,60.00
2017-04-26T09:53:41.144Z,61.00
2017-04-26T09:54:44.225Z,59.70
2017-04-26T09:55:43.722Z,60.00
2017-04-26T09:56:49.591Z,60.20
2017-04-26T09:57:49.826Z,61.30
2017-04-26T09:58:49.157Z,62.40
2017-04-26T09:59:49.481Z,61.40
2017-04-26T10:00:49.233Z,61.20
2017-04-26T10:01:49.360Z,60.40
2017-04-26T10:02:49.723Z,60.80
2017-04-26T10:03:50.100Z,59.80
2017-04-26T10:04:49.551Z,62.10
2017-04-26T10:05:49.573Z,60.40
2017-04-26T10:06:49.066Z,60.50
2017-04-26T10:07:48.584Z,59.40
2017-04-26T10:08:48.852Z,56.30
2017-04-26T10:09:48.595Z,55.70
2017-04-26T10:10:47.918Z,55.90
2017-04-26T10:11:49.185Z,58.30
2017-04-26T10:12:48.503Z,54.50
2017-04-26T10:13:49.693Z,48.40
2017-04-26T10:14:49.820Z,49.30
2017-04-26T10:16:59.420Z,50.80
2017-04-26T10:18:05.372Z,49.10
2017-04-26T10:19:08.410Z,47.10
2017-04-26T10:20:12.567Z,48.20
2017-04-26T10:21:11.961Z,49.00
2017-04-26T10:22:12.120Z,50.30
2017-04-26T10:23:18.193Z,51.40
2017-04-26T10:24:17.626Z,52.00
2017-04-26T10:25:17.733Z,54.80
2017-04-26T10:26:18.532Z,55.20
2017-04-26T10:27:17.807Z,54.70
2017-04-26T10:28:17.214Z,54.20
2017-04-26T10:29:17.370Z,54.70
2017-04-26T10:30:18.815Z,56.20
2017-04-26T10:31:16.313Z,56.20
2017-04-26T10:32:17.159Z,55.40
2017-04-26T10:33:17.161Z,55.10
2017-04-26T10:34:17.654Z,55.90
2017-04-26T10:35:17.789Z,55.00
2017-04-26T10:36:18.093Z,53.60
2017-04-26T10:37:18.098Z,53.90
2017-04-26T10:38:18.083Z,54.30
2017-04-26T10:39:17.321Z,55.10
2017-04-26T10:40:16.708Z,54.90
2017-04-26T10:41:16.397Z,56.90
2017-04-26T10:42:16.097Z,57.80
2017-04-26T10:43:15.460Z,59.10
2017-04-26T10:44:16.683Z,56.40
2017-04-26T10:45:20.829Z,56.90
2017-04-26T10:46:20.282Z,54.30
2017-04-26T10:47:25.654Z,55.10
2017-04-26T10:48:30.105Z,50.80
2017-04-26T10:49:29.919Z,51.80
2017-04-26T10:50:29.507Z,57.20
2017-04-26T10:51:28.825Z,54.30
2017-04-26T10:52:28.460Z,49.90
2017-04-26T10:53:27.865Z,50.90
2017-04-26T10:54:27.157Z,48.70
2017-04-26T10:55:26.424Z,50.30
2017-04-26T10:56:25.689Z,50.40
2017-04-26T10:57:25.081Z,48.00
2017-04-26T10:58:25.243Z,47.60
2017-04-26T10:59:25.189Z,47.90
2017-04-26T11:00:24.602Z,49.50
2017-04-26T11:01:23.892Z,50.30
2017-04-26T11:02:23.467Z,53.30
2017-04-26T11:03:22.970Z,54.10
2017-04-26T11:04:23.090Z,55.30
2017-04-26T11:05:22.701Z,56.30
2017-04-26T11:06:22.138Z,56.30
2017-04-26T11:07:21.544Z,56.20
2017-04-26T11:08:20.840Z,55.80
2017-04-26T11:09:20.148Z,56.20
2017-04-26T11:10:19.450Z,56.80
2017-04-26T11:11:18.801Z,58.00
2017-04-26T11:12:18.143Z,56.00
2017-04-26T11:13:17.489Z,56.60
2017-04-26T11:14:16.821Z,55.30
2017-04-26T11:15:16.108Z,53.60
2017-04-26T11:16:15.705Z,54.70
2017-04-26T11:17:15.056Z,54.60
2017-04-26T11:18:14.605Z,54.70
2017-04-26T11:19:14.697Z,57.00
2017-04-26T11:20:14.199Z,55.00
2017-04-26T11:21:14.361Z,53.00
2017-04-26T11:22:13.686Z,50.90
2017-04-26T11:23:13.656Z,51.40
2017-04-26T11:24:13.874Z,51.80
2017-04-26T11:25:13.181Z,49.50
2017-04-26T11:26:13.234Z,50.70
2017-04-26T11:27:12.619Z,51.00
2017-04-26T11:28:11.869Z,47.30
2017-04-26T11:29:11.850Z,44.60
2017-04-26T11:30:11.122Z,44.20
2017-04-26T11:31:10.557Z,44.00
2017-04-26T11:32:09.925Z,45.60
2017-04-26T11:33:09.241Z,45.80
2017-04-26T11:34:08.513Z,47.20
2017-04-26T11:35:07.953Z,46.20
2017-04-26T11:36:07.552Z,46.50
2017-04-26T11:37:06.840Z,48.20
2017-04-26T11:38:07.212Z,46.30
2017-04-26T11:39:06.528Z,45.90
2017-04-26T11:40:05.874Z,43.00
2017-04-26T11:41:06.074Z,42.20
2017-04-26T11:42:05.421Z,42.90
2017-04-26T11:43:05.476Z,44.60
2017-04-26T11:44:04.787Z,43.20
2017-04-26T11:45:04.007Z,44.40
2017-04-26T11:46:03.286Z,44.90
2017-04-26T11:47:03.339Z,45.50
2017-04-26T11:48:02.610Z,47.40
2017-04-26T11:49:02.740Z,47.30
2017-04-26T11:50:02.947Z,46.40
2017-04-26T11:51:02.952Z,46.20
2017-04-26T11:52:02.289Z,48.50
2017-04-26T11:53:01.590Z,47.20
2017-04-26T11:54:01.490Z,49.20
2017-04-26T11:55:02.232Z,46.10
2017-04-26T11:56:01.469Z,47.40
2017-04-26T11:57:01.676Z,44.00
2017-04-26T11:58:01.293Z,45.40
2017-04-26T11:59:00.697Z,48.20
2017-04-26T12:00:00.805Z,47.50
2017-04-26T12:01:00.041Z,47.40
2017-04-26T12:02:00.286Z,47.50
2017-04-26T12:02:59.590Z,47.10
2017-04-26T12:03:58.906Z,46.40
2017-04-26T12:04:58.315Z,48.70
2017-04-26T12:05:57.894Z,46.70
2017-04-26T12:06:57.350Z,48.90
2017-04-26T12:07:56.610Z,47.10
2017-04-26T12:08:56.479Z,45.50
2017-04-26T12:09:56.725Z,46.10
2017-04-26T12:10:56.964Z,46.30
2017-04-26T12:11:56.321Z,46.60
2017-04-26T12:12:55.761Z,45.40
2017-04-26T12:13:55.018Z,45.90
2017-04-26T12:14:54.426Z,45.90
2017-04-26T12:15:53.960Z,48.00
2017-04-26T12:16:53.473Z,49.00
2017-04-26T12:17:52.705Z,44.20
2017-04-26T12:18:51.889Z,46.10
2017-04-26T12:19:51.876Z,45.70
2017-04-26T12:20:51.249Z,44.90
2017-04-26T12:21:50.570Z,46.50
2017-04-26T12:22:49.728Z,46.50
2017-04-26T12:23:48.932Z,47.70
2017-04-26T12:24:48.117Z,46.80
2017-04-26T12:25:47.316Z,46.90
2017-04-26T12:26:46.589Z,45.10
2017-04-26T12:27:45.952Z,45.90
2017-04-26T12:28:45.141Z,43.60
2017-04-26T12:29:44.421Z,45.00
2017-04-26T12:30:44.395Z,44.20
2017-04-26T12:31:43.680Z,45.60
2017-04-26T12:32:42.901Z,44.90
2017-04-26T12:33:42.929Z,44.90
2017-04-26T12:34:42.133Z,44.90
2017-04-26T12:35:41.308Z,44.10
2017-04-26T12:36:40.747Z,41.50
2017-04-26T12:37:39.878Z,40.70
2017-04-26T12:38:39.011Z,43.20
2017-04-26T12:39:39.098Z,41.20
2017-04-26T12:40:38.243Z,41.00
2017-04-26T12:41:38.585Z,39.70
2017-04-26T12:42:37.757Z,38.80
2017-04-26T12:43:37.446Z,36.00
2017-04-26T12:44:36.881Z,37.00
2017-04-26T12:45:36.568Z,37.90
2017-04-26T12:46:36.085Z,35.50
2017-04-26T12:47:35.450Z,33.60
2017-04-26T12:48:34.893Z,32.50
2017-04-26T12:49:34.365Z,32.20
2017-04-26T12:50:33.509Z,31.80
2017-04-26T12:51:32.657Z,32.30
2017-04-26T12:52:32.126Z,30.80
2017-04-26T12:53:31.279Z,31.20
2017-04-26T12:54:30.445Z,36.10
2017-04-26T12:55:29.616Z,30.90
2017-04-26T12:56:28.813Z,31.10
2017-04-26T12:57:28.024Z,37.00